Escondido, California
Current Conditions -  °F | °C
As of 2:02 AM on Wednesday 22 Oct 2014 (Local Time) from KRNM Reporting Station
Few Clouds Few Clouds  
Wind Chill: 49°   Ceiling: Unl
Heat Index: 49°   Visibility: 9mi
Dew Point: 46°   Wind: 0mph
Humidity: 90%   Direction: NA
Pressure: 29.92"   Gusts: NA
Location:  33.12°N, 117.08°W
Report Text: KRNM 220902Z 00000KT 9SM FEW002 09/08 A2992 RMK AO2 T00940078
Loading
Personal Weather Stations






























Interactive Weather Map
Tropical Storm Tracking
New forecast layout! Learn more

10-Day Weather Forecast

Advertisements
Track Severe Weather on mobile